sensor_id;sensor_type;location;lat;lon;timestamp;temperature;humidity
6429;DHT22;3247;48.946;10.220;2022-11-21T00:00:41;4.00;99.90
6429;DHT22;3247;48.946;10.220;2022-11-21T00:03:08;4.00;99.90
6429;DHT22;3247;48.946;10.220;2022-11-21T00:05:37;4.00;99.90
6429;DHT22;3247;48.946;10.220;2022-11-21T00:08:02;4.00;99.90
6429;DHT22;3247;48.946;10.220;2022-11-21T00:10:28;3.90;99.90
6429;DHT22;3247;48.946;10.220;2022-11-21T00:12:54;3.90;99.90
6429;DHT22;3247;48.946;10.220;2022-11-21T00:15:20;3.90;99.90
6429;DHT22;3247;48.946;10.220;2022-11-21T00:17:46;3.90;99.90
6429;DHT22;3247;48.946;10.220;2022-11-21T00:20:11;3.90;99.90
6429;DHT22;3247;48.946;10.220;2022-11-21T00:22:37;3.90;99.90
6429;DHT22;3247;48.946;10.220;2022-11-21T00:25:02;3.90;99.90
6429;DHT22;3247;48.946;10.220;2022-11-21T00:27:28;3.90;99.90
6429;DHT22;3247;48.946;10.220;2022-11-21T00:29:53;3.90;99.90
6429;DHT22;3247;48.946;10.220;2022-11-21T00:32:19;3.90;99.90
6429;DHT22;3247;48.946;10.220;2022-11-21T00:34:44;3.90;99.90
6429;DHT22;3247;48.946;10.220;2022-11-21T00:37:10;3.90;99.90
6429;DHT22;3247;48.946;10.220;2022-11-21T00:39:35;3.90;99.90
6429;DHT22;3247;48.946;10.220;2022-11-21T00:42:01;4.60;99.90
6429;DHT22;3247;48.946;10.220;2022-11-21T00:44:26;3.90;99.90
6429;DHT22;3247;48.946;10.220;2022-11-21T00:49:39;3.90;99.90
6429;DHT22;3247;48.946;10.220;2022-11-21T00:52:05;4.00;99.90
6429;DHT22;3247;48.946;10.220;2022-11-21T00:54:30;3.90;99.90
6429;DHT22;3247;48.946;10.220;2022-11-21T00:56:55;4.00;99.90
6429;DHT22;3247;48.946;10.220;2022-11-21T00:59:21;3.90;99.90
6429;DHT22;3247;48.946;10.220;2022-11-21T01:01:46;3.90;99.90
6429;DHT22;3247;48.946;10.220;2022-11-21T01:04:12;3.80;99.90
6429;DHT22;3247;48.946;10.220;2022-11-21T01:06:37;3.90;99.90
6429;DHT22;3247;48.946;10.220;2022-11-21T01:09:03;3.90;99.90
6429;DHT22;3247;48.946;10.220;2022-11-21T01:11:29;3.90;99.90
6429;DHT22;3247;48.946;10.220;2022-11-21T01:13:54;4.90;99.90
6429;DHT22;3247;48.946;10.220;2022-11-21T01:16:21;3.90;99.90
6429;DHT22;3247;48.946;10.220;2022-11-21T01:21:49;3.90;99.90
6429;DHT22;3247;48.946;10.220;2022-11-21T01:24:15;3.80;99.90
6429;DHT22;3247;48.946;10.220;2022-11-21T01:26:40;3.80;99.90
6429;DHT22;3247;48.946;10.220;2022-11-21T01:29:06;3.90;99.90
6429;DHT22;3247;48.946;10.220;2022-11-21T01:31:33;3.90;99.90
6429;DHT22;3247;48.946;10.220;2022-11-21T01:33:58;3.90;99.90
6429;DHT22;3247;48.946;10.220;2022-11-21T01:36:25;4.00;99.90
6429;DHT22;3247;48.946;10.220;2022-11-21T01:38:52;4.00;99.90
6429;DHT22;3247;48.946;10.220;2022-11-21T01:41:25;3.90;99.90
6429;DHT22;3247;48.946;10.220;2022-11-21T01:43:52;3.90;99.90
6429;DHT22;3247;48.946;10.220;2022-11-21T01:46:18;4.00;99.90
6429;DHT22;3247;48.946;10.220;2022-11-21T01:48:46;3.90;99.90
6429;DHT22;3247;48.946;10.220;2022-11-21T01:51:23;3.80;99.90
6429;DHT22;3247;48.946;10.220;2022-11-21T01:56:44;3.80;99.90
6429;DHT22;3247;48.946;10.220;2022-11-21T01:59:11;3.70;99.90
6429;DHT22;3247;48.946;10.220;2022-11-21T02:01:39;3.80;99.90
6429;DHT22;3247;48.946;10.220;2022-11-21T02:04:04;3.70;99.90
6429;DHT22;3247;48.946;10.220;2022-11-21T02:06:30;3.80;99.90
6429;DHT22;3247;48.946;10.220;2022-11-21T02:08:56;3.80;99.90
6429;DHT22;3247;48.946;10.220;2022-11-21T02:11:28;3.80;99.90
6429;DHT22;3247;48.946;10.220;2022-11-21T02:13:55;3.80;99.90
6429;DHT22;3247;48.946;10.220;2022-11-21T02:16:21;3.80;99.90
6429;DHT22;3247;48.946;10.220;2022-11-21T02:21:44;3.80;99.90
6429;DHT22;3247;48.946;10.220;2022-11-21T02:26:56;3.80;99.90
6429;DHT22;3247;48.946;10.220;2022-11-21T02:29:22;3.70;99.90
6429;DHT22;3247;48.946;10.220;2022-11-21T02:31:48;3.70;99.90
6429;DHT22;3247;48.946;10.220;2022-11-21T02:34:15;3.60;99.90
6429;DHT22;3247;48.946;10.220;2022-11-21T02:36:42;3.70;99.90
6429;DHT22;3247;48.946;10.220;2022-11-21T02:39:16;3.80;99.90
6429;DHT22;3247;48.946;10.220;2022-11-21T02:44:35;3.90;99.90
6429;DHT22;3247;48.946;10.220;2022-11-21T02:47:01;3.90;99.90
6429;DHT22;3247;48.946;10.220;2022-11-21T02:49:29;3.90;99.90
6429;DHT22;3247;48.946;10.220;2022-11-21T02:51:55;3.90;99.90
6429;DHT22;3247;48.946;10.220;2022-11-21T02:54:21;3.90;99.90
6429;DHT22;3247;48.946;10.220;2022-11-21T02:56:46;3.90;99.90
6429;DHT22;3247;48.946;10.220;2022-11-21T02:59:12;3.80;99.90
6429;DHT22;3247;48.946;10.220;2022-11-21T03:01:37;3.80;99.90
6429;DHT22;3247;48.946;10.220;2022-11-21T03:04:03;3.80;99.90
6429;DHT22;3247;48.946;10.220;2022-11-21T03:06:28;3.80;99.90
6429;DHT22;3247;48.946;10.220;2022-11-21T03:08:54;3.70;99.90
6429;DHT22;3247;48.946;10.220;2022-11-21T03:11:19;3.70;99.90
6429;DHT22;3247;48.946;10.220;2022-11-21T03:13:45;3.70;99.90
6429;DHT22;3247;48.946;10.220;2022-11-21T03:16:10;3.70;99.90
6429;DHT22;3247;48.946;10.220;2022-11-21T03:18:39;3.70;99.90
6429;DHT22;3247;48.946;10.220;2022-11-21T03:21:04;3.60;99.90
6429;DHT22;3247;48.946;10.220;2022-11-21T03:23:30;3.60;99.90
6429;DHT22;3247;48.946;10.220;2022-11-21T03:25:55;3.20;99.90
6429;DHT22;3247;48.946;10.220;2022-11-21T03:28:23;3.50;99.90
6429;DHT22;3247;48.946;10.220;2022-11-21T03:30:48;3.40;99.90
6429;DHT22;3247;48.946;10.220;2022-11-21T03:33:14;3.40;99.90
6429;DHT22;3247;48.946;10.220;2022-11-21T03:35:39;3.30;99.90
6429;DHT22;3247;48.946;10.220;2022-11-21T03:38:05;3.30;99.90
6429;DHT22;3247;48.946;10.220;2022-11-21T03:40:30;3.30;99.90
6429;DHT22;3247;48.946;10.220;2022-11-21T03:42:55;3.20;99.90
6429;DHT22;3247;48.946;10.220;2022-11-21T03:45:21;3.20;99.90
6429;DHT22;3247;48.946;10.220;2022-11-21T03:47:55;3.20;99.90
6429;DHT22;3247;48.946;10.220;2022-11-21T03:50:21;3.20;99.90
6429;DHT22;3247;48.946;10.220;2022-11-21T03:52:46;3.10;99.90
6429;DHT22;3247;48.946;10.220;2022-11-21T03:55:12;3.10;99.90
6429;DHT22;3247;48.946;10.220;2022-11-21T03:57:37;3.10;99.90
6429;DHT22;3247;48.946;10.220;2022-11-21T04:00:03;3.00;99.90
6429;DHT22;3247;48.946;10.220;2022-11-21T04:02:28;2.90;99.90
6429;DHT22;3247;48.946;10.220;2022-11-21T04:04:54;2.90;99.90
6429;DHT22;3247;48.946;10.220;2022-11-21T04:07:19;2.90;99.90
6429;DHT22;3247;48.946;10.220;2022-11-21T04:09:45;2.80;99.90
6429;DHT22;3247;48.946;10.220;2022-11-21T04:12:10;2.80;99.90
6429;DHT22;3247;48.946;10.220;2022-11-21T04:14:36;2.80;99.90
6429;DHT22;3247;48.946;10.220;2022-11-21T04:17:07;2.70;99.90
6429;DHT22;3247;48.946;10.220;2022-11-21T04:19:32;2.70;99.90
6429;DHT22;3247;48.946;10.220;2022-11-21T04:21:58;2.70;99.90
6429;DHT22;3247;48.946;10.220;2022-11-21T04:24:23;2.80;99.90
6429;DHT22;3247;48.946;10.220;2022-11-21T04:26:49;2.70;99.90
6429;DHT22;3247;48.946;10.220;2022-11-21T04:29:14;2.80;99.90
6429;DHT22;3247;48.946;10.220;2022-11-21T04:31:40;2.80;99.90
6429;DHT22;3247;48.946;10.220;2022-11-21T04:34:05;2.70;99.90
6429;DHT22;3247;48.946;10.220;2022-11-21T04:36:30;2.80;99.90
6429;DHT22;3247;48.946;10.220;2022-11-21T04:38:56;2.80;99.90
6429;DHT22;3247;48.946;10.220;2022-11-21T04:41:22;2.80;99.90
6429;DHT22;3247;48.946;10.220;2022-11-21T04:43:48;2.80;99.90
6429;DHT22;3247;48.946;10.220;2022-11-21T04:46:13;2.90;99.90
6429;DHT22;3247;48.946;10.220;2022-11-21T04:48:44;3.00;99.90
6429;DHT22;3247;48.946;10.220;2022-11-21T04:51:09;3.00;99.90
6429;DHT22;3247;48.946;10.220;2022-11-21T04:53:34;3.00;99.90
6429;DHT22;3247;48.946;10.220;2022-11-21T04:56:04;3.00;99.90
6429;DHT22;3247;48.946;10.220;2022-11-21T04:58:29;3.10;99.90
6429;DHT22;3247;48.946;10.220;2022-11-21T05:00:55;3.20;99.90
6429;DHT22;3247;48.946;10.220;2022-11-21T05:03:21;3.20;99.90
6429;DHT22;3247;48.946;10.220;2022-11-21T05:05:46;3.30;99.90
6429;DHT22;3247;48.946;10.220;2022-11-21T05:08:12;3.30;99.90
6429;DHT22;3247;48.946;10.220;2022-11-21T05:10:38;2.90;99.90
6429;DHT22;3247;48.946;10.220;2022-11-21T05:13:21;3.30;99.90
6429;DHT22;3247;48.946;10.220;2022-11-21T05:15:47;3.40;99.90
6429;DHT22;3247;48.946;10.220;2022-11-21T05:18:25;3.40;99.90
6429;DHT22;3247;48.946;10.220;2022-11-21T05:20:50;3.40;99.90
6429;DHT22;3247;48.946;10.220;2022-11-21T05:23:16;3.50;99.90
6429;DHT22;3247;48.946;10.220;2022-11-21T05:25:41;3.50;99.90
6429;DHT22;3247;48.946;10.220;2022-11-21T05:28:07;3.50;99.90
6429;DHT22;3247;48.946;10.220;2022-11-21T05:30:32;3.50;99.90
6429;DHT22;3247;48.946;10.220;2022-11-21T05:32:57;3.60;99.90
6429;DHT22;3247;48.946;10.220;2022-11-21T05:35:23;3.60;99.90
6429;DHT22;3247;48.946;10.220;2022-11-21T05:37:54;3.60;99.90
6429;DHT22;3247;48.946;10.220;2022-11-21T05:40:19;3.60;99.90
6429;DHT22;3247;48.946;10.220;2022-11-21T05:42:44;3.70;99.90
6429;DHT22;3247;48.946;10.220;2022-11-21T05:45:29;3.70;99.90
6429;DHT22;3247;48.946;10.220;2022-11-21T05:48:12;3.70;99.90
6429;DHT22;3247;48.946;10.220;2022-11-21T05:50:38;3.70;99.90
6429;DHT22;3247;48.946;10.220;2022-11-21T05:53:03;3.60;99.90
6429;DHT22;3247;48.946;10.220;2022-11-21T05:55:29;3.60;99.90
6429;DHT22;3247;48.946;10.220;2022-11-21T05:57:57;3.50;99.90
6429;DHT22;3247;48.946;10.220;2022-11-21T06:00:22;3.50;99.90
6429;DHT22;3247;48.946;10.220;2022-11-21T06:02:47;4.10;99.90
6429;DHT22;3247;48.946;10.220;2022-11-21T06:05:32;3.50;99.90
6429;DHT22;3247;48.946;10.220;2022-11-21T06:07:57;3.50;99.90
6429;DHT22;3247;48.946;10.220;2022-11-21T06:10:22;3.40;99.90
6429;DHT22;3247;48.946;10.220;2022-11-21T06:12:48;3.40;99.90
6429;DHT22;3247;48.946;10.220;2022-11-21T06:15:13;3.50;99.90
6429;DHT22;3247;48.946;10.220;2022-11-21T06:17:54;3.60;99.90
6429;DHT22;3247;48.946;10.220;2022-11-21T06:20:19;3.40;99.90
6429;DHT22;3247;48.946;10.220;2022-11-21T06:22:45;3.60;99.90
6429;DHT22;3247;48.946;10.220;2022-11-21T06:25:10;3.40;99.90
6429;DHT22;3247;48.946;10.220;2022-11-21T06:27:36;3.40;99.90
6429;DHT22;3247;48.946;10.220;2022-11-21T06:30:01;3.50;99.90
6429;DHT22;3247;48.946;10.220;2022-11-21T06:32:27;3.40;99.90
6429;DHT22;3247;48.946;10.220;2022-11-21T06:34:52;3.40;99.90
6429;DHT22;3247;48.946;10.220;2022-11-21T06:37:18;3.50;99.90
6429;DHT22;3247;48.946;10.220;2022-11-21T06:39:43;3.50;99.90
6429;DHT22;3247;48.946;10.220;2022-11-21T06:42:09;3.60;99.90
6429;DHT22;3247;48.946;10.220;2022-11-21T06:44:34;3.60;99.90
6429;DHT22;3247;48.946;10.220;2022-11-21T06:47:09;3.60;99.90
6429;DHT22;3247;48.946;10.220;2022-11-21T06:49:34;3.60;99.90
6429;DHT22;3247;48.946;10.220;2022-11-21T06:52:00;3.60;99.90
6429;DHT22;3247;48.946;10.220;2022-11-21T06:54:25;3.60;99.90
6429;DHT22;3247;48.946;10.220;2022-11-21T06:56:51;3.70;99.90
6429;DHT22;3247;48.946;10.220;2022-11-21T06:59:17;3.70;99.90
6429;DHT22;3247;48.946;10.220;2022-11-21T07:01:43;3.70;99.90
6429;DHT22;3247;48.946;10.220;2022-11-21T07:04:09;3.70;99.90
6429;DHT22;3247;48.946;10.220;2022-11-21T07:06:34;3.80;99.90
6429;DHT22;3247;48.946;10.220;2022-11-21T07:08:59;3.80;99.90
6429;DHT22;3247;48.946;10.220;2022-11-21T07:11:25;3.80;99.90
6429;DHT22;3247;48.946;10.220;2022-11-21T07:13:50;4.40;99.90
6429;DHT22;3247;48.946;10.220;2022-11-21T07:16:16;3.80;99.90
6429;DHT22;3247;48.946;10.220;2022-11-21T07:18:47;3.80;99.90
6429;DHT22;3247;48.946;10.220;2022-11-21T07:21:12;3.80;99.90
6429;DHT22;3247;48.946;10.220;2022-11-21T07:23:38;3.90;99.90
6429;DHT22;3247;48.946;10.220;2022-11-21T07:26:04;3.90;99.90
6429;DHT22;3247;48.946;10.220;2022-11-21T07:28:30;3.90;99.90
6429;DHT22;3247;48.946;10.220;2022-11-21T07:30:56;3.90;99.90
6429;DHT22;3247;48.946;10.220;2022-11-21T07:33:22;3.90;99.90
6429;DHT22;3247;48.946;10.220;2022-11-21T07:35:47;4.00;99.90
6429;DHT22;3247;48.946;10.220;2022-11-21T07:38:13;4.00;99.90
6429;DHT22;3247;48.946;10.220;2022-11-21T07:40:38;4.00;99.90
6429;DHT22;3247;48.946;10.220;2022-11-21T07:43:04;4.00;99.90
6429;DHT22;3247;48.946;10.220;2022-11-21T07:45:30;4.00;99.90
6429;DHT22;3247;48.946;10.220;2022-11-21T07:48:02;4.00;99.90
6429;DHT22;3247;48.946;10.220;2022-11-21T07:50:28;4.10;99.90
6429;DHT22;3247;48.946;10.220;2022-11-21T07:53:00;4.10;99.90
6429;DHT22;3247;48.946;10.220;2022-11-21T07:55:25;4.10;99.90
6429;DHT22;3247;48.946;10.220;2022-11-21T07:58:00;4.10;99.90
6429;DHT22;3247;48.946;10.220;2022-11-21T08:00:26;4.20;99.90
6429;DHT22;3247;48.946;10.220;2022-11-21T08:02:52;4.20;99.90
6429;DHT22;3247;48.946;10.220;2022-11-21T08:05:17;4.20;99.90
6429;DHT22;3247;48.946;10.220;2022-11-21T08:07:43;4.20;99.90
6429;DHT22;3247;48.946;10.220;2022-11-21T08:10:08;4.20;99.90
6429;DHT22;3247;48.946;10.220;2022-11-21T08:12:34;4.30;99.90
6429;DHT22;3247;48.946;10.220;2022-11-21T08:14:59;4.70;99.90
6429;DHT22;3247;48.946;10.220;2022-11-21T08:17:34;4.30;99.90
6429;DHT22;3247;48.946;10.220;2022-11-21T08:19:59;4.30;99.90
6429;DHT22;3247;48.946;10.220;2022-11-21T08:22:25;4.40;99.90
6429;DHT22;3247;48.946;10.220;2022-11-21T08:24:51;4.40;99.90
6429;DHT22;3247;48.946;10.220;2022-11-21T08:27:18;4.40;99.90
6429;DHT22;3247;48.946;10.220;2022-11-21T08:29:45;4.40;99.90
6429;DHT22;3247;48.946;10.220;2022-11-21T08:32:11;4.50;99.90
6429;DHT22;3247;48.946;10.220;2022-11-21T08:34:36;4.60;99.90
6429;DHT22;3247;48.946;10.220;2022-11-21T08:37:02;4.70;99.90
6429;DHT22;3247;48.946;10.220;2022-11-21T08:39:27;4.90;99.90
6429;DHT22;3247;48.946;10.220;2022-11-21T08:41:55;5.10;99.90
6429;DHT22;3247;48.946;10.220;2022-11-21T08:44:35;5.30;99.90
6429;DHT22;3247;48.946;10.220;2022-11-21T08:47:19;5.40;99.90
6429;DHT22;3247;48.946;10.220;2022-11-21T08:49:45;5.50;99.90
6429;DHT22;3247;48.946;10.220;2022-11-21T08:52:11;5.60;99.90
6429;DHT22;3247;48.946;10.220;2022-11-21T08:54:36;5.60;99.90
6429;DHT22;3247;48.946;10.220;2022-11-21T08:57:02;5.60;99.90
6429;DHT22;3247;48.946;10.220;2022-11-21T08:59:27;5.60;99.90
6429;DHT22;3247;48.946;10.220;2022-11-21T09:01:53;5.70;99.90
6429;DHT22;3247;48.946;10.220;2022-11-21T09:04:18;5.80;99.90
6429;DHT22;3247;48.946;10.220;2022-11-21T09:06:44;5.90;99.90
6429;DHT22;3247;48.946;10.220;2022-11-21T09:09:09;6.10;99.90
6429;DHT22;3247;48.946;10.220;2022-11-21T09:11:35;5.00;99.90
6429;DHT22;3247;48.946;10.220;2022-11-21T09:14:01;6.00;99.90
6429;DHT22;3247;48.946;10.220;2022-11-21T09:16:45;6.00;99.90
6429;DHT22;3247;48.946;10.220;2022-11-21T09:19:29;6.10;99.90
6429;DHT22;3247;48.946;10.220;2022-11-21T09:21:55;6.10;99.90
6429;DHT22;3247;48.946;10.220;2022-11-21T09:24:20;6.10;99.90
6429;DHT22;3247;48.946;10.220;2022-11-21T09:26:46;6.00;99.90
6429;DHT22;3247;48.946;10.220;2022-11-21T09:29:11;6.00;99.90
6429;DHT22;3247;48.946;10.220;2022-11-21T09:31:42;6.00;99.90
6429;DHT22;3247;48.946;10.220;2022-11-21T09:34:08;5.90;99.90
6429;DHT22;3247;48.946;10.220;2022-11-21T09:36:34;5.80;99.90
6429;DHT22;3247;48.946;10.220;2022-11-21T09:39:00;5.70;99.90
6429;DHT22;3247;48.946;10.220;2022-11-21T09:41:28;5.80;99.90
6429;DHT22;3247;48.946;10.220;2022-11-21T09:49:55;5.60;99.90
6429;DHT22;3247;48.946;10.220;2022-11-21T09:52:22;5.60;99.90
6429;DHT22;3247;48.946;10.220;2022-11-21T09:54:51;5.60;99.90
6429;DHT22;3247;48.946;10.220;2022-11-21T09:57:20;5.50;99.90
6429;DHT22;3247;48.946;10.220;2022-11-21T09:59:47;5.50;99.90
6429;DHT22;3247;48.946;10.220;2022-11-21T10:02:13;5.40;99.90
6429;DHT22;3247;48.946;10.220;2022-11-21T10:04:40;5.60;99.90
6429;DHT22;3247;48.946;10.220;2022-11-21T10:07:15;5.60;99.90
6429;DHT22;3247;48.946;10.220;2022-11-21T10:20:38;6.20;99.90
6429;DHT22;3247;48.946;10.220;2022-11-21T10:23:13;6.30;99.90
6429;DHT22;3247;48.946;10.220;2022-11-21T10:25:42;6.40;99.90
6429;DHT22;3247;48.946;10.220;2022-11-21T10:28:33;6.50;99.90
6429;DHT22;3247;48.946;10.220;2022-11-21T10:31:02;6.50;99.90
6429;DHT22;3247;48.946;10.220;2022-11-21T10:33:32;6.50;99.90
6429;DHT22;3247;48.946;10.220;2022-11-21T10:36:06;6.50;99.90
6429;DHT22;3247;48.946;10.220;2022-11-21T10:38:36;6.50;99.90
6429;DHT22;3247;48.946;10.220;2022-11-21T10:43:33;6.60;99.90
6429;DHT22;3247;48.946;10.220;2022-11-21T10:46:20;6.70;99.90
6429;DHT22;3247;48.946;10.220;2022-11-21T10:57:38;7.10;99.90
6429;DHT22;3247;48.946;10.220;2022-11-21T11:02:56;7.00;99.90
6429;DHT22;3247;48.946;10.220;2022-11-21T11:05:25;7.00;99.90
6429;DHT22;3247;48.946;10.220;2022-11-21T11:10:59;6.80;99.90
6429;DHT22;3247;48.946;10.220;2022-11-21T11:13:25;6.80;99.90
6429;DHT22;3247;48.946;10.220;2022-11-21T11:15:57;6.70;99.90
6429;DHT22;3247;48.946;10.220;2022-11-21T11:18:28;6.70;99.90
6429;DHT22;3247;48.946;10.220;2022-11-21T11:21:07;6.60;99.90
6429;DHT22;3247;48.946;10.220;2022-11-21T11:23:33;6.60;99.90
6429;DHT22;3247;48.946;10.220;2022-11-21T11:25:59;6.50;99.90
6429;DHT22;3247;48.946;10.220;2022-11-21T11:28:25;6.50;99.90
6429;DHT22;3247;48.946;10.220;2022-11-21T11:30:51;6.40;99.90
6429;DHT22;3247;48.946;10.220;2022-11-21T11:33:37;7.40;99.90
6429;DHT22;3247;48.946;10.220;2022-11-21T11:36:13;6.40;99.90
6429;DHT22;3247;48.946;10.220;2022-11-21T11:38:47;6.40;99.90
6429;DHT22;3247;48.946;10.220;2022-11-21T11:41:42;6.50;99.90
6429;DHT22;3247;48.946;10.220;2022-11-21T11:44:24;6.50;99.90
6429;DHT22;3247;48.946;10.220;2022-11-21T11:47:13;6.60;99.90
6429;DHT22;3247;48.946;10.220;2022-11-21T11:50:18;6.60;99.90
6429;DHT22;3247;48.946;10.220;2022-11-21T11:52:53;6.60;99.90
6429;DHT22;3247;48.946;10.220;2022-11-21T11:55:33;6.50;99.90
6429;DHT22;3247;48.946;10.220;2022-11-21T11:58:01;6.60;99.90
6429;DHT22;3247;48.946;10.220;2022-11-21T12:00:32;6.60;99.90
6429;DHT22;3247;48.946;10.220;2022-11-21T12:05:53;6.80;99.90
6429;DHT22;3247;48.946;10.220;2022-11-21T12:08:32;6.90;99.90
6429;DHT22;3247;48.946;10.220;2022-11-21T12:11:02;7.00;99.90
6429;DHT22;3247;48.946;10.220;2022-11-21T12:13:49;7.00;99.90
6429;DHT22;3247;48.946;10.220;2022-11-21T12:16:16;7.10;99.90
6429;DHT22;3247;48.946;10.220;2022-11-21T12:21:38;7.10;99.90
6429;DHT22;3247;48.946;10.220;2022-11-21T12:24:04;7.00;99.90
6429;DHT22;3247;48.946;10.220;2022-11-21T12:26:33;7.00;99.90
6429;DHT22;3247;48.946;10.220;2022-11-21T12:49:38;6.70;99.90
6429;DHT22;3247;48.946;10.220;2022-11-21T12:53:10;6.70;99.90
6429;DHT22;3247;48.946;10.220;2022-11-21T12:55:37;6.70;99.90
6429;DHT22;3247;48.946;10.220;2022-11-21T13:00:41;6.60;99.90
6429;DHT22;3247;48.946;10.220;2022-11-21T13:03:27;6.60;99.90
6429;DHT22;3247;48.946;10.220;2022-11-21T13:05:54;6.60;99.90
6429;DHT22;3247;48.946;10.220;2022-11-21T13:08:23;6.50;99.90
6429;DHT22;3247;48.946;10.220;2022-11-21T13:10:58;6.60;99.90
6429;DHT22;3247;48.946;10.220;2022-11-21T13:13:59;6.60;99.90
6429;DHT22;3247;48.946;10.220;2022-11-21T13:16:27;6.60;99.90
6429;DHT22;3247;48.946;10.220;2022-11-21T13:21:50;6.80;99.90
6429;DHT22;3247;48.946;10.220;2022-11-21T13:27:01;6.70;99.90
6429;DHT22;3247;48.946;10.220;2022-11-21T13:29:27;6.70;99.90
6429;DHT22;3247;48.946;10.220;2022-11-21T13:31:52;6.80;99.90
6429;DHT22;3247;48.946;10.220;2022-11-21T13:34:31;6.80;99.90
6429;DHT22;3247;48.946;10.220;2022-11-21T13:36:58;6.90;99.90
6429;DHT22;3247;48.946;10.220;2022-11-21T13:39:24;6.90;99.90
6429;DHT22;3247;48.946;10.220;2022-11-21T13:44:41;6.90;99.90
6429;DHT22;3247;48.946;10.220;2022-11-21T13:50:21;6.90;99.90
6429;DHT22;3247;48.946;10.220;2022-11-21T13:53:04;6.80;99.90
6429;DHT22;3247;48.946;10.220;2022-11-21T14:00:50;5.90;99.90
6429;DHT22;3247;48.946;10.220;2022-11-21T14:10:45;5.60;99.90
6429;DHT22;3247;48.946;10.220;2022-11-21T14:13:45;5.50;99.90
6429;DHT22;3247;48.946;10.220;2022-11-21T14:16:16;5.40;99.90
6429;DHT22;3247;48.946;10.220;2022-11-21T14:18:59;5.30;99.90
6429;DHT22;3247;48.946;10.220;2022-11-21T14:21:26;5.20;99.90
6429;DHT22;3247;48.946;10.220;2022-11-21T14:23:53;6.40;99.90
6429;DHT22;3247;48.946;10.220;2022-11-21T14:26:19;5.10;99.90
6429;DHT22;3247;48.946;10.220;2022-11-21T14:28:45;4.90;99.90
6429;DHT22;3247;48.946;10.220;2022-11-21T14:31:12;4.90;99.90
6429;DHT22;3247;48.946;10.220;2022-11-21T14:33:38;4.80;99.90
6429;DHT22;3247;48.946;10.220;2022-11-21T14:36:08;4.70;99.90
6429;DHT22;3247;48.946;10.220;2022-11-21T14:41:10;4.40;99.90
6429;DHT22;3247;48.946;10.220;2022-11-21T14:43:40;5.00;99.90
6429;DHT22;3247;48.946;10.220;2022-11-21T14:46:11;5.60;99.90
6429;DHT22;3247;48.946;10.220;2022-11-21T14:51:34;4.50;99.90
6429;DHT22;3247;48.946;10.220;2022-11-21T14:54:00;4.50;99.90
6429;DHT22;3247;48.946;10.220;2022-11-21T14:56:27;4.70;99.90
6429;DHT22;3247;48.946;10.220;2022-11-21T14:58:54;5.30;99.90
6429;DHT22;3247;48.946;10.220;2022-11-21T15:01:24;4.50;99.90
6429;DHT22;3247;48.946;10.220;2022-11-21T15:03:54;4.30;99.90
6429;DHT22;3247;48.946;10.220;2022-11-21T15:06:21;4.20;99.90
6429;DHT22;3247;48.946;10.220;2022-11-21T15:08:47;4.50;99.90
6429;DHT22;3247;48.946;10.220;2022-11-21T15:11:12;4.20;99.90
6429;DHT22;3247;48.946;10.220;2022-11-21T15:13:38;4.10;99.90
6429;DHT22;3247;48.946;10.220;2022-11-21T15:16:05;4.00;99.90
6429;DHT22;3247;48.946;10.220;2022-11-21T15:21:33;3.80;99.90
6429;DHT22;3247;48.946;10.220;2022-11-21T15:24:14;3.80;99.90
6429;DHT22;3247;48.946;10.220;2022-11-21T15:26:39;3.70;99.90
6429;DHT22;3247;48.946;10.220;2022-11-21T15:29:15;3.70;99.90
6429;DHT22;3247;48.946;10.220;2022-11-21T15:31:41;3.10;99.90
6429;DHT22;3247;48.946;10.220;2022-11-21T15:34:08;3.70;99.90
6429;DHT22;3247;48.946;10.220;2022-11-21T15:36:33;3.70;99.90
6429;DHT22;3247;48.946;10.220;2022-11-21T15:41:34;3.60;99.90
6429;DHT22;3247;48.946;10.220;2022-11-21T15:49:07;3.40;99.90
6429;DHT22;3247;48.946;10.220;2022-11-21T15:51:34;3.30;99.90
6429;DHT22;3247;48.946;10.220;2022-11-21T15:54:00;3.10;99.90
6429;DHT22;3247;48.946;10.220;2022-11-21T15:56:29;3.10;99.90
6429;DHT22;3247;48.946;10.220;2022-11-21T15:58:55;3.00;99.90
6429;DHT22;3247;48.946;10.220;2022-11-21T16:01:21;3.00;99.90
6429;DHT22;3247;48.946;10.220;2022-11-21T16:03:48;2.90;99.90
6429;DHT22;3247;48.946;10.220;2022-11-21T16:06:14;2.80;99.90
6429;DHT22;3247;48.946;10.220;2022-11-21T16:08:39;2.70;99.90
6429;DHT22;3247;48.946;10.220;2022-11-21T16:11:05;2.50;99.90
6429;DHT22;3247;48.946;10.220;2022-11-21T16:13:30;2.50;99.90
6429;DHT22;3247;48.946;10.220;2022-11-21T16:15:58;2.50;99.90
6429;DHT22;3247;48.946;10.220;2022-11-21T16:18:30;2.40;99.90
6429;DHT22;3247;48.946;10.220;2022-11-21T16:21:05;2.40;99.90
6429;DHT22;3247;48.946;10.220;2022-11-21T16:23:31;2.40;99.90
6429;DHT22;3247;48.946;10.220;2022-11-21T16:25:56;2.30;99.90
6429;DHT22;3247;48.946;10.220;2022-11-21T16:28:22;2.20;99.90
6429;DHT22;3247;48.946;10.220;2022-11-21T16:30:48;2.10;99.90
6429;DHT22;3247;48.946;10.220;2022-11-21T16:33:13;2.10;99.90
6429;DHT22;3247;48.946;10.220;2022-11-21T16:35:39;2.10;99.90
6429;DHT22;3247;48.946;10.220;2022-11-21T16:38:11;2.30;99.90
6429;DHT22;3247;48.946;10.220;2022-11-21T16:40:36;2.30;99.90
6429;DHT22;3247;48.946;10.220;2022-11-21T16:43:09;2.40;99.90
6429;DHT22;3247;48.946;10.220;2022-11-21T16:45:35;2.40;99.90
6429;DHT22;3247;48.946;10.220;2022-11-21T16:48:01;2.40;99.90
6429;DHT22;3247;48.946;10.220;2022-11-21T16:50:26;2.50;99.90
6429;DHT22;3247;48.946;10.220;2022-11-21T16:52:52;2.50;99.90
6429;DHT22;3247;48.946;10.220;2022-11-21T16:55:17;2.50;99.90
6429;DHT22;3247;48.946;10.220;2022-11-21T16:57:42;2.50;99.90
6429;DHT22;3247;48.946;10.220;2022-11-21T17:00:08;2.40;99.90
6429;DHT22;3247;48.946;10.220;2022-11-21T17:02:36;2.30;99.90
6429;DHT22;3247;48.946;10.220;2022-11-21T17:05:02;2.30;99.90
6429;DHT22;3247;48.946;10.220;2022-11-21T17:07:29;2.20;99.90
6429;DHT22;3247;48.946;10.220;2022-11-21T17:09:54;2.20;99.90
6429;DHT22;3247;48.946;10.220;2022-11-21T17:12:20;2.20;99.90
6429;DHT22;3247;48.946;10.220;2022-11-21T17:14:46;2.10;99.90
6429;DHT22;3247;48.946;10.220;2022-11-21T17:20:15;2.10;99.90
6429;DHT22;3247;48.946;10.220;2022-11-21T17:22:40;2.40;99.90
6429;DHT22;3247;48.946;10.220;2022-11-21T17:25:05;2.10;99.90
6429;DHT22;3247;48.946;10.220;2022-11-21T17:27:31;2.10;99.90
6429;DHT22;3247;48.946;10.220;2022-11-21T17:29:57;2.10;99.90
6429;DHT22;3247;48.946;10.220;2022-11-21T17:32:23;2.10;99.90
6429;DHT22;3247;48.946;10.220;2022-11-21T17:34:48;2.10;99.90
6429;DHT22;3247;48.946;10.220;2022-11-21T17:37:14;2.10;99.90
6429;DHT22;3247;48.946;10.220;2022-11-21T17:39:39;2.10;99.90
6429;DHT22;3247;48.946;10.220;2022-11-21T17:42:04;2.10;99.90
6429;DHT22;3247;48.946;10.220;2022-11-21T17:44:30;2.10;99.90
6429;DHT22;3247;48.946;10.220;2022-11-21T17:46:55;2.10;99.90
6429;DHT22;3247;48.946;10.220;2022-11-21T17:49:23;2.10;99.90
6429;DHT22;3247;48.946;10.220;2022-11-21T17:51:50;2.00;99.90
6429;DHT22;3247;48.946;10.220;2022-11-21T17:54:16;2.00;99.90
6429;DHT22;3247;48.946;10.220;2022-11-21T17:56:41;2.00;99.90
6429;DHT22;3247;48.946;10.220;2022-11-21T17:59:10;2.00;99.90
6429;DHT22;3247;48.946;10.220;2022-11-21T18:01:36;2.10;99.90
6429;DHT22;3247;48.946;10.220;2022-11-21T18:04:04;2.20;99.90
6429;DHT22;3247;48.946;10.220;2022-11-21T18:06:37;2.20;99.90
6429;DHT22;3247;48.946;10.220;2022-11-21T18:09:03;2.20;99.90
6429;DHT22;3247;48.946;10.220;2022-11-21T18:11:30;2.10;99.90